Time;durP1;ratioP1;P1;durP2;ratioP2;P2;SDS_P1;SDS_P2;PMS_P1;PMS_P2;Temp;Humidity;BMP_temperature;BMP_pressure;BME280_temperature;BME280_humidity;BME280_pressure;Samples;Min_cycle;Max_cycle;Signal;HPM_P1;HPM_P2
2024/01/12 00:00:43;;;;;;;71.40;22.05;;;0.60;99.90;;;3.09;100.00;102379.97;4951269;28;20428;-81
2024/01/12 00:03:08;;;;;;;81.63;23.00;;;0.60;99.90;;;3.18;100.00;102368.41;4951331;28;20066;-82
2024/01/12 00:05:35;;;;;;;79.57;22.13;;;0.60;99.90;;;3.15;100.00;102368.66;4951875;28;20047;-81
2024/01/12 00:08:01;;;;;;;77.43;22.42;;;0.60;99.90;;;3.07;100.00;102371.13;4966870;28;20038;-81
2024/01/12 00:10:27;;;;;;;74.47;22.13;;;0.60;99.90;;;2.96;100.00;102372.88;4950435;29;20045;-80
2024/01/12 00:12:52;;;;;;;72.28;20.40;;;0.60;99.90;;;3.01;100.00;102367.09;4945970;28;20115;-81
2024/01/12 00:15:18;;;;;;;78.93;20.88;;;0.60;99.90;;;2.92;100.00;102354.38;4947808;28;20113;-80
2024/01/12 00:17:44;;;;;;;69.60;20.33;;;0.60;99.90;;;3.10;100.00;102373.56;4961712;28;20039;-81
2024/01/12 00:20:10;;;;;;;70.38;21.50;;;0.60;99.90;;;3.22;100.00;102367.19;4941666;28;20043;-81
2024/01/12 00:22:36;;;;;;;75.38;19.92;;;0.60;99.90;;;3.14;100.00;102372.34;4926765;28;20031;-81
2024/01/12 00:25:02;;;;;;;78.00;21.10;;;0.60;99.90;;;3.06;100.00;102366.72;4960356;28;20042;-80
2024/01/12 00:27:27;;;;;;;77.35;21.80;;;0.60;99.90;;;3.10;100.00;102355.56;4950359;28;20432;-81
2024/01/12 00:29:53;;;;;;;81.03;21.63;;;0.60;99.90;;;3.23;100.00;102370.72;4946662;28;20074;-80
2024/01/12 00:32:19;;;;;;;84.43;21.77;;;0.60;99.90;;;3.12;100.00;102359.00;4947793;28;20112;-83
2024/01/12 00:34:46;;;;;;;78.80;22.60;;;0.60;99.90;;;3.30;100.00;102372.81;4951506;28;20169;-83
2024/01/12 00:37:11;;;;;;;79.97;22.73;;;0.70;99.90;;;3.15;100.00;102360.56;4951518;28;20035;-83
2024/01/12 00:39:37;;;;;;;78.35;21.27;;;0.70;99.90;;;3.15;100.00;102347.94;4951567;28;20042;-83
2024/01/12 00:42:04;;;;;;;85.85;22.45;;;0.70;99.90;;;3.17;100.00;102362.16;4950625;28;20429;-82
2024/01/12 00:44:30;;;;;;;86.47;22.58;;;0.70;99.90;;;3.21;100.00;102352.00;4949611;28;20447;-82
2024/01/12 00:46:55;;;;;;;81.65;22.98;;;0.70;99.90;;;3.30;100.00;102351.22;4951926;28;20038;-82
2024/01/12 00:49:21;;;;;;;86.78;24.13;;;0.70;99.90;;;3.28;100.00;102357.72;4964231;28;20387;-82
2024/01/12 00:51:48;;;;;;;76.10;21.48;;;0.70;99.90;;;3.22;100.00;102336.66;4950744;29;20135;-82
2024/01/12 00:54:14;;;;;;;77.72;22.60;;;0.70;99.90;;;3.20;100.00;102358.38;4947933;28;20059;-82
2024/01/12 00:56:41;;;;;;;77.20;22.45;;;0.70;99.90;;;3.24;100.00;102345.47;4950929;29;20043;-82
2024/01/12 00:59:07;;;;;;;74.55;23.20;;;0.70;99.90;;;3.25;100.00;102347.19;4952309;28;20043;-82
2024/01/12 01:01:35;;;;;;;78.60;22.40;;;0.70;99.90;;;3.37;100.00;102359.69;4952699;28;20103;-83
2024/01/12 01:04:01;;;;;;;86.45;23.88;;;0.70;99.90;;;3.16;100.00;102351.50;4970648;28;20379;-82
2024/01/12 01:06:28;;;;;;;72.82;23.50;;;0.70;99.90;;;3.17;100.00;102359.47;4954770;28;20102;-82
2024/01/12 01:08:54;;;;;;;71.40;23.80;;;0.70;99.90;;;3.41;100.00;102352.16;4970965;28;20035;-82
2024/01/12 01:11:20;;;;;;;83.50;23.40;;;0.70;99.90;;;3.42;100.00;102351.19;4966916;28;20043;-82
2024/01/12 01:13:46;;;;;;;71.35;22.50;;;0.80;99.90;;;3.30;100.00;102353.94;4951048;29;20122;-82
2024/01/12 01:16:11;;;;;;;82.50;23.00;;;0.80;99.90;;;3.43;100.00;102374.47;4950082;28;20045;-82
2024/01/12 01:18:37;;;;;;;75.10;22.92;;;0.80;99.90;;;3.42;100.00;102381.72;4954797;28;20057;-82
2024/01/12 01:21:03;;;;;;;70.35;22.02;;;0.80;99.90;;;3.29;100.00;102379.19;4955350;28;20513;-83
2024/01/12 01:23:28;;;;;;;71.30;24.05;;;0.80;99.90;;;3.09;100.00;102379.97;4955132;28;20086;-82
2024/01/12 01:25:54;;;;;;;79.82;22.60;;;0.80;99.90;;;2.46;100.00;102375.91;4955288;28;20039;-82
2024/01/12 01:28:20;;;;;;;75.68;23.90;;;0.80;99.90;;;2.81;100.00;102363.31;4954547;28;20051;-83
2024/01/12 01:30:46;;;;;;;71.35;23.77;;;0.80;99.90;;;3.00;100.00;102385.13;4954842;28;20129;-82
2024/01/12 01:33:11;;;;;;;75.97;24.17;;;0.80;99.90;;;2.97;100.00;102393.47;4953574;29;20458;-81
2024/01/12 01:35:37;;;;;;;75.35;24.05;;;0.80;99.90;;;3.18;100.00;102384.59;4964499;28;20149;-81
2024/01/12 01:38:03;;;;;;;75.78;24.77;;;0.80;99.90;;;2.81;100.00;102385.75;4954226;28;20030;-81
2024/01/12 01:40:29;;;;;;;76.75;24.20;;;0.80;99.90;;;2.72;100.00;102386.47;4953319;29;20068;-82
2024/01/12 01:42:55;;;;;;;70.85;22.80;;;0.80;99.90;;;2.92;100.00;102382.19;4954757;28;20360;-81
2024/01/12 01:45:21;;;;;;;78.35;24.13;;;0.90;99.90;;;2.83;100.00;102391.00;4953085;29;20070;-82
2024/01/12 01:47:47;;;;;;;76.38;24.63;;;0.80;99.90;;;2.97;100.00;102404.25;4953601;28;20467;-82
2024/01/12 01:50:16;;;;;;;74.47;24.15;;;0.80;99.90;;;2.79;100.00;102385.03;4949003;28;20035;-80
2024/01/12 01:52:45;;;;;;;72.55;23.08;;;0.90;99.90;;;2.94;100.00;102388.31;4961484;28;20042;-80
2024/01/12 01:55:14;;;;;;;77.07;23.73;;;0.90;99.90;;;2.43;100.00;102382.44;4954072;29;20047;-80
2024/01/12 01:57:42;;;;;;;71.10;24.08;;;0.90;99.90;;;2.20;100.00;102396.81;4968707;28;20051;-80
2024/01/12 02:00:11;;;;;;;85.53;25.25;;;0.90;99.90;;;2.32;100.00;102397.72;4950048;28;20084;-80
2024/01/12 02:02:40;;;;;;;65.22;21.15;;;0.90;99.90;;;2.37;100.00;102380.19;4949789;29;20071;-80
2024/01/12 02:05:08;;;;;;;75.65;22.90;;;0.90;99.90;;;2.53;100.00;102379.88;4954576;29;20047;-80
2024/01/12 02:07:37;;;;;;;73.63;22.95;;;0.90;99.90;;;2.26;100.00;102361.31;4950861;28;20399;-80
2024/01/12 02:10:03;;;;;;;80.20;23.77;;;0.80;99.90;;;2.39;100.00;102370.19;4954794;28;20031;-80
2024/01/12 02:12:29;;;;;;;75.32;22.25;;;0.90;99.90;;;2.68;100.00;102374.22;4953921;28;20028;-80
2024/01/12 02:14:56;;;;;;;75.70;20.17;;;0.90;99.90;;;2.76;100.00;102352.91;4964975;28;20042;-81
2024/01/12 02:17:22;;;;;;;53.90;18.20;;;0.90;99.90;;;2.11;100.00;102375.00;4946612;29;20044;-81
2024/01/12 02:19:47;;;;;;;68.38;20.38;;;0.80;99.90;;;2.35;100.00;102371.38;4964762;28;20510;-80
2024/01/12 02:22:13;;;;;;;66.28;21.30;;;0.80;99.90;;;2.42;100.00;102361.84;4954352;28;20039;-80
2024/01/12 02:24:39;;;;;;;77.57;21.65;;;0.80;99.90;;;2.16;100.00;102369.25;4936985;29;20035;-80
2024/01/12 02:27:05;;;;;;;80.35;20.70;;;0.80;99.90;;;1.71;100.00;102375.38;4954086;28;20039;-79
2024/01/12 02:29:31;;;;;;;62.22;19.20;;;0.80;99.90;;;1.94;100.00;102372.75;4953567;28;20039;-80
2024/01/12 02:31:57;;;;;;;74.88;19.33;;;0.80;99.90;;;2.06;100.00;102355.66;4952895;28;20094;-81
2024/01/12 02:34:23;;;;;;;73.07;19.48;;;0.80;99.90;;;1.87;100.00;102361.59;4953993;28;20451;-80
2024/01/12 02:36:49;;;;;;;71.75;18.83;;;0.80;99.90;;;2.14;100.00;102361.31;4952829;29;20059;-81
2024/01/12 02:39:15;;;;;;;76.32;21.38;;;0.80;99.90;;;1.75;100.00;102355.31;4954886;28;20101;-82
2024/01/12 02:41:40;;;;;;;77.03;20.55;;;0.80;99.90;;;2.11;100.00;102347.22;4968306;28;20035;-81
2024/01/12 02:44:06;;;;;;;77.25;21.30;;;0.80;99.90;;;2.19;100.00;102352.84;4953958;28;20043;-81
2024/01/12 02:46:32;;;;;;;72.55;19.05;;;0.80;99.90;;;2.23;100.00;102340.03;4953873;28;20027;-80
2024/01/12 02:48:57;;;;;;;60.45;18.25;;;0.80;99.90;;;2.27;100.00;102349.56;4953953;28;20047;-81
2024/01/12 02:51:23;;;;;;;84.10;21.25;;;0.80;99.90;;;2.05;100.00;102359.31;4952507;29;20035;-81
2024/01/12 02:53:49;;;;;;;81.68;23.10;;;0.80;99.90;;;2.01;100.00;102329.09;4953187;28;20054;-81
2024/01/12 02:56:14;;;;;;;68.15;21.48;;;0.80;99.90;;;1.83;100.00;102339.44;4953880;28;20042;-80
2024/01/12 02:58:40;;;;;;;64.15;19.05;;;0.80;99.90;;;2.36;100.00;102331.84;4953928;28;20058;-80
2024/01/12 03:01:06;;;;;;;81.22;21.45;;;0.80;99.90;;;2.59;100.00;102344.34;4945129;29;20043;-81
2024/01/12 03:03:31;;;;;;;83.63;22.00;;;0.80;99.90;;;2.00;100.00;102348.94;4952003;29;20127;-80
2024/01/12 03:05:57;;;;;;;78.97;21.83;;;0.80;99.90;;;2.00;100.00;102329.22;4951988;29;21804;-81
2024/01/12 03:08:23;;;;;;;65.95;19.80;;;0.80;99.90;;;1.95;100.00;102340.31;4951890;28;20039;-80
2024/01/12 03:10:48;;;;;;;75.78;20.70;;;0.80;99.90;;;2.12;100.00;102322.00;4949235;28;20036;-81
2024/01/12 03:13:14;;;;;;;83.65;21.50;;;0.80;99.90;;;2.15;100.00;102317.25;4953555;28;20054;-79
2024/01/12 03:15:40;;;;;;;74.57;21.73;;;0.80;99.90;;;1.97;100.00;102318.69;4952922;28;20059;-80
2024/01/12 03:18:06;;;;;;;86.65;23.90;;;0.80;99.90;;;2.09;100.00;102316.88;4953078;28;20041;-80
2024/01/12 03:20:31;;;;;;;80.40;24.52;;;0.80;99.90;;;2.47;100.00;102312.13;4948613;29;20067;-80
2024/01/12 03:22:57;;;;;;;82.97;23.38;;;0.80;99.90;;;2.91;100.00;102307.66;4951825;29;20460;-80
2024/01/12 03:25:23;;;;;;;97.03;25.67;;;0.80;99.90;;;2.22;100.00;102320.28;4952484;28;20329;-80
2024/01/12 03:27:48;;;;;;;76.68;22.55;;;0.80;99.90;;;2.36;100.00;102319.22;4952054;29;20626;-80
2024/01/12 03:30:14;;;;;;;75.50;21.42;;;0.80;99.90;;;2.18;100.00;102308.06;4946963;29;20117;-80
2024/01/12 03:32:43;;;;;;;75.90;24.35;;;0.80;99.90;;;2.08;100.00;102305.22;4953287;28;20443;-80
2024/01/12 03:35:09;;;;;;;68.05;19.98;;;0.80;99.90;;;1.95;100.00;102326.88;4951980;28;20722;-80
2024/01/12 03:37:34;;;;;;;62.22;19.45;;;0.70;99.90;;;2.15;100.00;102311.00;4953770;28;20027;-80
2024/01/12 03:40:00;;;;;;;83.25;23.05;;;0.80;99.90;;;2.53;100.00;102296.34;4949209;29;20098;-80
2024/01/12 03:42:26;;;;;;;79.25;24.33;;;0.80;99.90;;;2.18;100.00;102308.06;4950503;29;20035;-79
2024/01/12 03:44:51;;;;;;;89.88;23.98;;;0.80;99.90;;;2.05;100.00;102299.25;4953676;28;20395;-80
2024/01/12 03:47:17;;;;;;;79.90;21.42;;;0.80;99.90;;;2.31;100.00;102313.34;4951872;29;20039;-80
2024/01/12 03:49:44;;;;;;;85.50;24.77;;;0.80;99.90;;;2.21;100.00;102320.44;4968044;28;20043;-80
2024/01/12 03:52:11;;;;;;;80.53;24.67;;;0.80;99.90;;;2.41;100.00;102322.41;4953554;28;20046;-81
2024/01/12 03:54:37;;;;;;;76.68;23.40;;;0.80;99.90;;;2.30;100.00;102315.19;4951893;28;20066;-80
2024/01/12 03:57:03;;;;;;;80.90;24.05;;;0.80;99.90;;;2.08;100.00;102325.94;4951854;29;20066;-80
2024/01/12 03:59:29;;;;;;;73.20;23.50;;;0.80;99.90;;;1.54;100.00;102317.44;4952958;29;20159;-80
2024/01/12 04:01:55;;;;;;;73.57;24.77;;;0.80;99.90;;;1.40;100.00;102319.34;4951786;29;20083;-80
2024/01/12 04:04:21;;;;;;;70.22;21.98;;;0.70;99.90;;;1.75;100.00;102323.03;4953730;28;20459;-80
2024/01/12 04:06:46;;;;;;;73.32;23.38;;;0.80;99.90;;;2.17;100.00;102327.03;4948253;28;20031;-80
2024/01/12 04:09:13;;;;;;;77.25;21.40;;;0.80;99.90;;;2.21;100.00;102317.75;4953505;28;20039;-80
2024/01/12 04:11:39;;;;;;;70.63;23.15;;;0.80;99.90;;;1.93;100.00;102338.75;4953069;28;20106;-80
2024/01/12 04:14:05;;;;;;;61.20;19.70;;;0.70;99.90;;;2.08;100.00;102329.47;4951863;28;20049;-81
2024/01/12 04:16:31;;;;;;;69.07;21.55;;;0.70;99.90;;;1.92;100.00;102337.03;4953053;28;20036;-81
2024/01/12 04:18:57;;;;;;;69.28;21.30;;;0.70;99.90;;;1.84;100.00;102311.53;4953215;28;20102;-79
2024/01/12 04:21:22;;;;;;;64.53;21.67;;;0.70;99.90;;;2.09;100.00;102322.25;4967781;28;20035;-80
2024/01/12 04:23:48;;;;;;;73.40;24.15;;;0.70;99.90;;;1.60;100.00;102332.28;4967208;28;20394;-79
2024/01/12 04:26:14;;;;;;;72.00;23.95;;;0.70;99.90;;;1.71;100.00;102316.16;4967480;28;20050;-80
2024/01/12 04:28:40;;;;;;;87.43;23.08;;;0.70;99.90;;;1.88;100.00;102336.41;4952334;28;20044;-81
2024/01/12 04:31:06;;;;;;;76.50;23.65;;;0.70;99.90;;;2.15;100.00;102324.47;4952864;28;20071;-81
2024/01/12 04:33:33;;;;;;;85.03;25.63;;;0.70;99.90;;;1.98;100.00;102328.47;4952880;28;20442;-80
2024/01/12 04:36:00;;;;;;;82.80;23.05;;;0.60;99.90;;;2.10;100.00;102319.41;4949073;28;20028;-81
2024/01/12 04:38:27;;;;;;;82.15;23.45;;;0.60;99.90;;;2.04;100.00;102314.53;4969595;28;20050;-81
2024/01/12 04:40:53;;;;;;;73.53;24.13;;;0.70;99.90;;;1.93;100.00;102306.44;4970488;28;20039;-80
2024/01/12 04:43:20;;;;;;;83.57;24.98;;;0.60;99.90;;;2.43;100.00;102287.25;4956348;28;20051;-80
2024/01/12 04:45:46;;;;;;;89.15;24.20;;;0.60;99.90;;;2.54;100.00;102273.81;4969951;28;20089;-79
2024/01/12 04:48:11;;;;;;;78.93;23.20;;;0.60;99.90;;;2.83;100.00;102275.09;4970665;28;20047;-80
2024/01/12 04:50:37;;;;;;;78.88;24.05;;;0.70;99.90;;;2.80;100.00;102278.03;4950341;29;20039;-80
2024/01/12 04:53:03;;;;;;;82.22;22.73;;;0.70;99.90;;;2.37;100.00;102264.34;4955502;28;20127;-80
2024/01/12 04:55:29;;;;;;;65.50;21.92;;;0.70;99.90;;;2.91;100.00;102283.41;4955591;28;20046;-80
2024/01/12 04:57:55;;;;;;;76.88;23.35;;;0.70;99.90;;;2.46;100.00;102270.84;4955825;28;20090;-80
2024/01/12 05:00:20;;;;;;;72.93;22.45;;;0.70;99.90;;;2.34;100.00;102267.28;4954196;29;20055;-81
2024/01/12 05:02:46;;;;;;;67.75;22.25;;;0.70;99.90;;;2.76;100.00;102271.19;4955082;28;20035;-80
2024/01/12 05:05:12;;;;;;;86.82;22.33;;;0.70;99.90;;;2.84;100.00;102272.28;4953235;28;20098;-81
2024/01/12 05:07:38;;;;;;;69.80;21.83;;;0.70;99.90;;;2.63;100.00;102274.88;4951232;28;20118;-81
2024/01/12 05:10:05;;;;;;;67.28;22.65;;;0.70;99.90;;;2.06;100.00;102274.88;4939927;28;20040;-82
2024/01/12 05:12:31;;;;;;;73.78;23.38;;;0.60;99.90;;;1.86;100.00;102280.00;4953974;29;20038;-81
2024/01/12 05:14:58;;;;;;;65.25;20.25;;;0.60;99.90;;;2.25;100.00;102273.44;4954958;28;20081;-82
2024/01/12 05:17:24;;;;;;;60.42;18.98;;;0.60;99.90;;;2.35;100.00;102263.63;4954658;28;20039;-82
2024/01/12 05:19:50;;;;;;;57.92;18.05;;;0.60;99.90;;;1.85;100.00;102270.19;4953651;29;20043;-81
2024/01/12 05:22:16;;;;;;;56.17;18.70;;;0.60;99.90;;;1.66;100.00;102264.53;4950229;28;20436;-81
2024/01/12 05:24:41;;;;;;;61.35;20.67;;;0.60;99.90;;;1.86;100.00;102280.00;4946316;28;20095;-80
2024/01/12 05:27:07;;;;;;;61.15;20.00;;;0.60;99.90;;;1.82;100.00;102269.59;4952602;28;20038;-81
2024/01/12 05:29:34;;;;;;;69.50;21.13;;;0.60;99.90;;;1.76;100.00;102278.97;4953152;28;20538;-81
2024/01/12 05:32:03;;;;;;;67.28;20.63;;;0.60;99.90;;;1.80;100.00;102272.38;4953262;29;20035;-81
2024/01/12 05:34:29;;;;;;;69.03;19.60;;;0.60;99.90;;;2.08;100.00;102285.53;4935965;28;20122;-81
2024/01/12 05:36:55;;;;;;;61.83;19.73;;;0.60;99.90;;;2.59;100.00;102274.28;4954017;28;20089;-81
2024/01/12 05:39:20;;;;;;;67.13;20.00;;;0.60;99.90;;;2.63;100.00;102277.56;4954523;28;20070;-82
2024/01/12 05:41:46;;;;;;;65.05;19.88;;;0.60;99.90;;;2.41;100.00;102271.22;4954100;28;20027;-81
2024/01/12 05:44:12;;;;;;;65.50;20.02;;;0.60;99.90;;;2.60;100.00;102267.03;4954611;28;20039;-81
2024/01/12 05:46:41;;;;;;;63.05;19.45;;;0.60;99.90;;;2.57;100.00;102278.06;4954526;28;20487;-82
2024/01/12 05:49:06;;;;;;;65.50;21.23;;;0.60;99.90;;;2.19;100.00;102282.00;4952938;28;20050;-81
2024/01/12 05:51:32;;;;;;;63.85;19.65;;;0.60;99.90;;;2.06;100.00;102285.66;4954335;28;20043;-81
2024/01/12 05:53:58;;;;;;;60.53;20.73;;;0.60;99.90;;;1.80;100.00;102280.47;4954006;28;20047;-82
2024/01/12 05:56:24;;;;;;;52.67;18.60;;;0.50;99.90;;;1.67;100.00;102282.41;4953840;28;20395;-81
2024/01/12 05:58:50;;;;;;;52.65;20.10;;;0.60;99.90;;;1.44;100.00;102285.00;4941668;28;20043;-83
2024/01/12 06:01:17;;;;;;;56.55;19.35;;;0.50;99.90;;;1.96;100.00;102290.88;4952386;29;20047;-81
2024/01/12 06:03:45;;;;;;;58.30;19.42;;;0.50;99.90;;;1.87;100.00;102288.91;4954266;28;20050;-79
2024/01/12 06:06:11;;;;;;;55.42;18.88;;;0.50;99.90;;;2.27;100.00;102274.16;4954243;28;20104;-79
2024/01/12 06:08:37;;;;;;;64.90;20.02;;;0.50;99.90;;;2.05;100.00;102283.94;4950737;28;20047;-79
2024/01/12 06:11:04;;;;;;;54.40;19.48;;;0.50;99.90;;;2.38;100.00;102284.91;4968763;28;20031;-79
2024/01/12 06:13:30;;;;;;;58.83;19.20;;;0.60;99.90;;;2.60;100.00;102283.19;4953833;28;20111;-79
2024/01/12 06:15:55;;;;;;;56.25;19.08;;;0.60;99.90;;;2.38;100.00;102282.22;4950700;29;20055;-78
2024/01/12 06:18:21;;;;;;;59.42;19.08;;;0.60;99.90;;;2.69;100.00;102285.16;4952402;28;20039;-81
2024/01/12 06:20:47;;;;;;;62.95;19.45;;;0.60;99.90;;;2.72;100.00;102287.63;4951670;28;20035;-80
2024/01/12 06:23:14;;;;;;;59.72;19.90;;;0.60;99.90;;;2.30;100.00;102279.28;4966610;28;20455;-80
2024/01/12 06:25:40;;;;;;;52.58;18.88;;;0.60;99.90;;;2.49;100.00;102267.06;4952020;28;20050;-80
2024/01/12 06:28:06;;;;;;;59.72;19.70;;;0.60;99.90;;;2.28;100.00;102284.81;4951389;28;20391;-78
2024/01/12 06:30:32;;;;;;;58.28;18.13;;;0.60;99.90;;;2.01;100.00;102295.91;4952585;28;20023;-78
2024/01/12 06:32:59;;;;;;;53.97;17.35;;;0.60;99.90;;;2.29;100.00;102291.06;4951015;28;20131;-79
2024/01/12 06:35:25;;;;;;;54.67;17.48;;;0.50;99.90;;;2.44;100.00;102288.97;4953167;29;20045;-78
2024/01/12 06:37:51;;;;;;;46.00;17.23;;;0.60;99.90;;;2.25;100.00;102292.28;4952102;29;20487;-78
2024/01/12 06:40:17;;;;;;;48.88;16.38;;;0.50;99.90;;;2.55;100.00;102288.97;4964665;28;20031;-78
2024/01/12 06:42:43;;;;;;;55.35;18.65;;;0.60;99.90;;;2.59;100.00;102254.53;4953174;28;20039;-78
2024/01/12 06:45:11;;;;;;;44.38;16.25;;;0.60;99.90;;;2.54;100.00;102284.56;4944933;28;20031;-79
2024/01/12 06:47:37;;;;;;;45.85;16.10;;;0.60;99.90;;;2.27;100.00;102272.34;4953624;29;20126;-79
2024/01/12 06:50:03;;;;;;;46.85;15.68;;;0.60;99.90;;;2.13;100.00;102284.19;4967898;28;20028;-78
2024/01/12 06:52:32;;;;;;;50.50;18.27;;;0.60;99.90;;;1.69;100.00;102283.13;4953878;28;20495;-78
2024/01/12 06:54:58;;;;;;;48.00;16.88;;;0.50;99.90;;;2.40;100.00;102269.53;4951613;29;20126;-79
2024/01/12 06:57:24;;;;;;;41.63;16.08;;;0.50;99.90;;;2.55;100.00;102280.03;4953733;28;20586;-79
2024/01/12 06:59:50;;;;;;;42.95;16.30;;;0.50;99.90;;;2.64;100.00;102276.56;4953220;28;20039;-79
2024/01/12 07:02:16;;;;;;;48.50;15.40;;;0.50;99.90;;;2.57;100.00;102261.91;4953362;28;20396;-78
2024/01/12 07:04:41;;;;;;;46.35;16.20;;;0.60;99.90;;;2.54;100.00;102276.50;4951978;28;20060;-78
2024/01/12 07:07:09;;;;;;;48.72;16.48;;;0.50;99.90;;;2.44;100.00;102281.75;4952983;28;20043;-79
2024/01/12 07:09:35;;;;;;;45.60;15.68;;;0.60;99.90;;;2.11;100.00;102290.69;4952758;28;20027;-78
2024/01/12 07:12:02;;;;;;;47.10;15.52;;;0.60;99.90;;;2.25;100.00;102279.66;4953428;28;20454;-80
2024/01/12 07:14:28;;;;;;;39.67;15.07;;;0.60;99.90;;;2.48;100.00;102278.81;4951298;29;20182;-80
2024/01/12 07:16:53;;;;;;;44.22;15.93;;;0.60;99.90;;;2.46;100.00;102287.00;4951626;29;20077;-80
2024/01/12 07:19:19;;;;;;;48.83;16.42;;;0.60;99.90;;;2.53;100.00;102295.47;4953248;28;20042;-79
2024/01/12 07:21:45;;;;;;;47.00;14.65;;;0.60;99.90;;;2.71;100.00;102294.00;4948641;28;20484;-80
2024/01/12 07:24:11;;;;;;;47.08;15.88;;;0.60;99.90;;;2.58;100.00;102301.34;4945401;29;20043;-80
2024/01/12 07:26:36;;;;;;;45.25;16.13;;;0.60;99.90;;;2.55;100.00;102296.19;4952909;28;20039;-80
2024/01/12 07:29:03;;;;;;;47.20;15.68;;;0.60;99.90;;;2.78;100.00;102298.88;4953065;28;20462;-80
2024/01/12 07:31:28;;;;;;;49.25;18.30;;;0.60;99.90;;;2.30;100.00;102298.16;4952708;28;20086;-80
2024/01/12 07:33:54;;;;;;;51.80;16.83;;;0.60;99.90;;;2.55;100.00;102291.69;4953225;28;20039;-80
2024/01/12 07:36:20;;;;;;;45.25;16.95;;;0.60;99.90;;;2.33;100.00;102295.22;4952763;29;20050;-80
2024/01/12 07:38:45;;;;;;;47.30;16.38;;;0.60;99.90;;;2.26;100.00;102296.69;4935433;29;20042;-79
2024/01/12 07:41:11;;;;;;;47.67;16.02;;;0.60;99.90;;;1.99;100.00;102305.94;4952167;29;20120;-81
2024/01/12 07:43:37;;;;;;;43.45;16.42;;;0.60;99.90;;;2.12;100.00;102295.09;4952291;28;20038;-81
2024/01/12 07:46:02;;;;;;;49.35;16.83;;;0.60;99.90;;;1.76;100.00;102295.13;4952709;28;20403;-79
2024/01/12 07:48:28;;;;;;;45.92;17.88;;;0.50;99.90;;;2.01;100.00;102312.06;4951209;28;20050;-79
2024/01/12 07:50:54;;;;;;;44.88;16.90;;;0.50;99.90;;;1.62;100.00;102319.56;4952748;28;20035;-79
2024/01/12 07:53:19;;;;;;;43.80;16.38;;;0.50;99.90;;;1.55;100.00;102300.34;4952422;28;20051;-78
2024/01/12 07:55:45;;;;;;;40.05;15.15;;;0.50;99.90;;;1.78;100.00;102313.88;4967084;28;20104;-76
2024/01/12 07:58:11;;;;;;;39.53;16.17;;;0.50;99.90;;;1.49;100.00;102317.78;4952567;28;20043;-77
2024/01/12 08:00:37;;;;;;;40.13;15.88;;;0.50;99.90;;;1.73;100.00;102311.53;4967207;28;20178;-78
2024/01/12 08:03:02;;;;;;;43.88;16.42;;;0.50;99.90;;;1.82;100.00;102299.19;4952208;28;20039;-79
2024/01/12 08:05:31;;;;;;;38.67;15.63;;;0.50;99.90;;;2.15;100.00;102309.19;4946001;29;20109;-80
2024/01/12 08:07:56;;;;;;;45.88;16.45;;;0.50;99.90;;;2.23;100.00;102302.31;4967257;28;20394;-80
2024/01/12 08:10:22;;;;;;;43.97;15.93;;;0.60;99.90;;;2.07;100.00;102313.44;4952395;28;20043;-79
2024/01/12 08:12:48;;;;;;;46.33;16.73;;;0.50;99.90;;;2.29;100.00;102326.06;4950469;29;20046;-78
2024/01/12 08:15:14;;;;;;;40.03;15.82;;;0.60;99.90;;;2.44;100.00;102322.16;4952426;28;20051;-78
2024/01/12 08:17:41;;;;;;;42.47;15.35;;;0.60;99.90;;;2.67;100.00;102322.19;4966955;28;20051;-78
2024/01/12 08:20:07;;;;;;;42.20;17.10;;;0.60;99.90;;;2.61;100.00;102306.47;4952313;28;20050;-79
2024/01/12 08:22:33;;;;;;;45.92;15.00;;;0.60;99.90;;;2.66;100.00;102301.59;4966786;28;20042;-80
2024/01/12 08:25:00;;;;;;;40.28;15.30;;;0.60;99.90;;;2.53;100.00;102303.53;4952427;28;20039;-79
2024/01/12 08:27:26;;;;;;;38.13;16.20;;;0.70;99.90;;;2.24;100.00;102304.88;4952778;28;20130;-79
2024/01/12 08:29:52;;;;;;;43.90;15.98;;;0.70;99.90;;;2.13;100.00;102302.19;4952472;28;20089;-77
2024/01/12 08:32:18;;;;;;;45.88;16.45;;;0.70;99.90;;;2.35;100.00;102303.19;4950642;28;20415;-76
2024/01/12 08:34:44;;;;;;;37.72;15.70;;;0.70;99.90;;;2.11;100.00;102293.38;4952039;28;20044;-78
2024/01/12 08:37:09;;;;;;;39.60;16.50;;;0.70;99.90;;;2.19;100.00;102290.06;4950966;29;20047;-78
2024/01/12 08:39:35;;;;;;;40.55;15.98;;;0.70;99.90;;;2.33;100.00;102278.22;4951678;28;20045;-78
2024/01/12 08:42:02;;;;;;;42.45;15.60;;;0.70;99.90;;;2.37;100.00;102287.75;4952292;28;20086;-78
2024/01/12 08:44:28;;;;;;;37.78;15.55;;;0.70;99.90;;;2.27;100.00;102282.25;4951552;28;20043;-78
2024/01/12 08:46:53;;;;;;;33.97;14.00;;;0.80;99.90;;;2.06;100.00;102280.25;4950410;28;20038;-78
2024/01/12 08:49:20;;;;;;;42.45;15.63;;;0.80;99.90;;;2.33;100.00;102291.69;4952204;28;20542;-78
2024/01/12 08:51:48;;;;;;;44.63;15.60;;;0.80;99.90;;;2.12;100.00;102295.09;4952295;28;20676;-77
2024/01/12 08:54:14;;;;;;;42.63;16.58;;;0.80;99.90;;;2.08;100.00;102270.22;4951956;28;20133;-78
2024/01/12 08:56:40;;;;;;;36.22;15.88;;;0.80;99.90;;;2.49;100.00;102278.69;4952067;28;20047;-79
2024/01/12 08:59:06;;;;;;;40.97;14.88;;;0.80;99.90;;;2.62;100.00;102267.75;4951980;28;20123;-78
2024/01/12 09:01:31;;;;;;;37.58;15.10;;;0.80;99.90;;;2.48;100.00;102263.50;4951697;29;20035;-78
2024/01/12 09:03:59;;;;;;;42.58;16.52;;;0.80;99.90;;;2.63;100.00;102260.56;4951530;28;20373;-78
2024/01/12 09:06:24;;;;;;;36.83;15.10;;;0.80;99.90;;;2.39;100.00;102259.72;4945289;29;20050;-79
2024/01/12 09:08:50;;;;;;;37.65;14.55;;;0.80;99.90;;;2.56;100.00;102255.66;4944961;29;20294;-79
2024/01/12 09:11:16;;;;;;;37.10;15.05;;;0.80;99.90;;;2.62;100.00;102266.91;4960512;28;20079;-79
2024/01/12 09:13:42;;;;;;;33.35;15.40;;;0.80;99.90;;;2.04;100.00;102276.84;4949024;28;20136;-79
2024/01/12 09:16:09;;;;;;;32.15;13.35;;;0.80;99.90;;;2.26;100.00;102272.44;4949398;29;20070;-80
2024/01/12 09:18:35;;;;;;;30.05;13.55;;;0.80;99.90;;;2.09;100.00;102269.25;4948747;28;20479;-79
2024/01/12 09:21:00;;;;;;;37.10;14.93;;;0.80;99.90;;;2.72;100.00;102274.13;4949418;28;20127;-80
2024/01/12 09:23:26;;;;;;;35.33;13.63;;;0.80;99.90;;;2.97;100.00;102282.03;4950485;28;20082;-80
2024/01/12 09:25:53;;;;;;;38.17;14.45;;;1.00;99.90;;;2.83;100.00;102278.66;4951346;29;20043;-79
2024/01/12 09:28:19;;;;;;;33.25;13.80;;;1.00;99.90;;;2.52;100.00;102281.16;4952997;28;20039;-79
2024/01/12 09:30:46;;;;;;;31.77;13.00;;;1.00;99.90;;;2.90;100.00;102278.97;4952812;28;20050;-80
2024/01/12 09:33:13;;;;;;;35.47;15.45;;;1.00;99.90;;;2.27;100.00;102275.03;4952878;28;20043;-79
2024/01/12 09:35:38;;;;;;;32.10;14.55;;;0.90;99.90;;;2.87;100.00;102269.31;4947452;29;20512;-79
2024/01/12 09:38:05;;;;;;;35.80;15.18;;;1.00;99.90;;;2.65;100.00;102267.53;4951193;28;20027;-80
2024/01/12 09:40:30;;;;;;;33.85;15.57;;;1.10;99.90;;;2.44;100.00;102267.41;4952802;28;20122;-79
2024/01/12 09:42:59;;;;;;;33.40;14.77;;;1.10;99.90;;;2.93;100.00;102275.19;4951243;29;20039;-79
2024/01/12 09:45:26;;;;;;;37.70;15.35;;;1.10;99.90;;;2.99;100.00;102282.78;4966927;28;20035;-80
2024/01/12 09:47:55;;;;;;;33.40;14.75;;;1.10;99.90;;;3.25;100.00;102283.31;4949317;29;20130;-83
2024/01/12 09:50:24;;;;;;;33.00;14.55;;;1.20;99.90;;;3.25;100.00;102269.81;4954744;28;20440;-80
2024/01/12 09:52:51;;;;;;;34.10;14.02;;;1.20;99.90;;;3.32;100.00;102272.88;4955153;28;20368;-79
2024/01/12 09:55:17;;;;;;;29.95;12.50;;;1.30;99.90;;;2.94;100.00;102277.78;4952025;28;20140;-78
2024/01/12 09:57:44;;;;;;;26.73;12.00;;;1.30;99.90;;;3.04;100.00;102266.22;4952379;28;20114;-79
2024/01/12 10:00:14;;;;;;;27.57;12.33;;;1.30;99.90;;;3.40;100.00;102258.72;4952772;28;20270;-79